Time;durP1;ratioP1;P1;durP2;ratioP2;P2;SDS_P1;SDS_P2;PMS_P1;PMS_P2;Temp;Humidity;BMP_temperature;BMP_pressure;BME280_temperature;BME280_humidity;BME280_pressure;Samples;Min_cycle;Max_cycle;Signal;HPM_P1;HPM_P2
2022/01/31 00:01:38;;;;;;;2.10;1.80;;;6.70;99.90;5.70;101469.00;;;;5014389;28;20211;-65
2022/01/31 00:04:09;;;;;;;2.40;2.20;;;6.40;99.90;5.70;101415.00;;;;5015992;28;20213;-62
2022/01/31 00:06:34;;;;;;;1.27;1.27;;;6.20;99.90;6.50;101459.00;;;;5033116;28;20183;-65
2022/01/31 00:09:14;;;;;;;0.37;0.37;;;6.40;99.90;6.20;101422.00;;;;5051551;28;20190;-63
2022/01/31 00:11:55;;;;;;;0.30;0.30;;;6.40;99.90;6.10;101415.00;;;;5035647;28;20207;-63
2022/01/31 00:14:32;;;;;;;5.50;1.40;;;6.40;99.90;6.10;101428.00;;;;5034058;28;20254;-63
2022/01/31 00:17:04;;;;;;;4.07;0.50;;;6.50;99.90;6.80;101372.00;;;;5035413;28;20189;-63
2022/01/31 00:19:30;;;;;;;0.73;0.40;;;6.70;99.90;6.60;101389.00;;;;5033581;28;20206;-65
2022/01/31 00:22:01;;;;;;;1.17;1.17;;;6.60;99.90;6.60;101371.00;;;;5013092;28;20235;-66
2022/01/31 00:24:27;;;;;;;2.00;1.20;;;6.70;99.90;6.10;101381.00;;;;5015455;28;20302;-63
2022/01/31 00:26:56;;;;;;;0.40;0.40;;;6.50;99.90;6.60;101361.00;;;;5015484;28;20526;-63
2022/01/31 00:29:25;;;;;;;2.30;2.10;;;6.60;99.90;6.10;101349.00;;;;5014976;28;20179;-63
2022/01/31 00:31:50;;;;;;;1.37;0.57;;;6.50;99.90;6.00;101345.00;;;;5019438;28;20236;-63
2022/01/31 00:34:19;;;;;;;0.30;0.30;;;6.40;99.90;6.50;101305.00;;;;5035253;28;20177;-63
2022/01/31 00:36:54;;;;;;;7.40;1.00;;;6.60;99.90;6.40;101321.00;;;;5032770;28;20275;-63
2022/01/31 00:39:28;;;;;;;2.90;1.00;;;6.60;99.90;6.30;101297.00;;;;5014607;28;20551;-63
2022/01/31 00:42:00;;;;;;;3.17;1.90;;;6.70;99.90;6.00;101300.00;;;;5013940;28;20241;-63
2022/01/31 00:44:39;;;;;;;4.47;1.97;;;6.60;99.90;5.90;101298.00;;;;5015243;28;20244;-62
2022/01/31 00:47:21;;;;;;;1.10;1.00;;;6.40;99.90;5.80;101298.00;;;;5015218;28;20192;-62
2022/01/31 00:49:52;;;;;;;6.03;1.67;;;6.30;99.90;5.80;101293.00;;;;5014686;28;20171;-63
2022/01/31 00:52:23;;;;;;;4.80;1.17;;;6.20;99.90;6.00;101287.00;;;;5045332;28;20202;-62
2022/01/31 00:54:50;;;;;;;6.17;2.60;;;6.20;99.90;5.70;101281.00;;;;5014462;28;20192;-62
2022/01/31 00:57:21;;;;;;;4.63;2.13;;;6.20;99.90;5.40;101265.00;;;;5014721;28;20292;-63
2022/01/31 00:59:53;;;;;;;6.87;1.03;;;6.00;99.90;5.60;101265.00;;;;5047299;28;20173;-63
2022/01/31 01:02:24;;;;;;;5.57;3.20;;;6.00;99.90;5.50;101261.00;;;;5045691;28;20663;-63
2022/01/31 01:04:58;;;;;;;0.80;0.73;;;5.90;99.90;5.50;101256.00;;;;5046541;28;20184;-63
2022/01/31 01:07:29;;;;;;;0.40;0.40;;;6.00;99.90;5.80;101256.00;;;;5044978;28;20185;-63
2022/01/31 01:10:00;;;;;;;10.03;1.73;;;6.00;99.90;5.70;101243.00;;;;5013533;28;20185;-63
2022/01/31 01:12:31;;;;;;;0.37;0.37;;;6.00;99.90;5.80;101197.00;;;;5046165;28;20605;-63
2022/01/31 01:14:57;;;;;;;7.83;1.50;;;6.00;99.90;5.30;101212.00;;;;5014710;28;20547;-63
2022/01/31 01:17:31;;;;;;;8.77;2.17;;;5.90;99.90;5.70;101208.00;;;;5013454;28;20235;-63
2022/01/31 01:20:00;;;;;;;3.53;3.30;;;6.00;99.90;5.40;101207.00;;;;5015791;28;20212;-63
2022/01/31 01:22:34;;;;;;;6.23;2.47;;;5.90;99.90;5.50;101187.00;;;;5033043;28;20273;-63
2022/01/31 01:25:06;;;;;;;0.70;0.70;;;5.90;99.90;5.90;101186.00;;;;5031905;28;20656;-64
2022/01/31 01:27:35;;;;;;;9.03;2.17;;;6.00;99.90;5.70;101190.00;;;;5032788;28;20186;-64
2022/01/31 01:30:11;;;;;;;0.40;0.40;;;6.00;99.90;5.40;101124.00;;;;5033129;28;20174;-63
2022/01/31 01:32:59;;;;;;;1.07;0.97;;;5.90;99.90;5.40;101165.00;;;;5034027;28;20212;-64
2022/01/31 01:35:30;;;;;;;4.00;1.63;;;5.80;99.90;5.40;101139.00;;;;5032940;28;20208;-64
2022/01/31 01:37:59;;;;;;;13.90;2.73;;;5.90;99.90;5.50;101152.00;;;;5033836;28;20660;-64
2022/01/31 01:40:31;;;;;;;0.40;0.40;;;5.90;99.90;5.50;101139.00;;;;5033031;28;20190;-64
2022/01/31 01:43:02;;;;;;;3.63;1.10;;;5.90;99.90;5.30;101124.00;;;;5032867;28;20243;-64
2022/01/31 01:45:30;;;;;;;4.33;2.10;;;5.90;99.90;5.40;101140.00;;;;5032732;28;20182;-64
2022/01/31 01:47:59;;;;;;;3.97;1.80;;;5.90;99.90;5.80;101095.00;;;;5033698;28;20180;-64
2022/01/31 01:50:25;;;;;;;4.57;2.40;;;6.10;99.90;5.80;101105.00;;;;5027508;28;20709;-64
2022/01/31 01:52:57;;;;;;;2.23;2.03;;;6.10;99.90;5.70;101122.00;;;;5012769;28;20213;-64
2022/01/31 01:55:23;;;;;;;10.60;3.40;;;6.00;99.90;5.80;101087.00;;;;5013843;28;20171;-64
2022/01/31 01:57:56;;;;;;;3.33;1.43;;;6.10;99.90;5.80;101105.00;;;;4996361;28;20197;-64
2022/01/31 02:00:27;;;;;;;7.07;2.20;;;6.10;99.90;5.50;101106.00;;;;5012714;28;20181;-65
2022/01/31 02:02:55;;;;;;;5.27;2.70;;;6.10;99.90;5.80;101108.00;;;;5013447;28;20211;-65
2022/01/31 02:05:26;;;;;;;1.93;1.80;;;6.20;99.90;5.90;101093.00;;;;5004707;28;20289;-65
2022/01/31 02:07:52;;;;;;;2.53;2.33;;;6.20;99.90;6.00;101111.00;;;;5032201;28;20189;-65
2022/01/31 02:10:25;;;;;;;9.33;2.30;;;6.30;99.90;6.10;101120.00;;;;5032240;28;20185;-65
2022/01/31 02:13:05;;;;;;;3.57;2.30;;;6.40;99.90;6.00;101105.00;;;;5033349;28;20563;-65
2022/01/31 02:15:34;;;;;;;1.90;1.03;;;6.40;99.90;6.10;101092.00;;;;5033253;28;20179;-65
2022/01/31 02:18:06;;;;;;;0.80;0.80;;;6.50;99.90;6.30;101080.00;;;;5032518;28;20285;-64
2022/01/31 02:20:40;;;;;;;8.63;2.90;;;6.60;99.90;6.50;101078.00;;;;5026052;28;20189;-64
2022/01/31 02:23:13;;;;;;;2.47;2.10;;;6.60;99.90;6.40;101071.00;;;;5015632;28;20198;-64
2022/01/31 02:25:54;;;;;;;3.87;2.77;;;6.60;99.90;6.50;101061.00;;;;5031801;28;20180;-64
2022/01/31 02:28:27;;;;;;;4.17;2.70;;;6.70;99.90;6.50;101068.00;;;;5022222;28;20185;-65
2022/01/31 02:30:59;;;;;;;8.07;4.20;;;6.80;99.90;6.80;101056.00;;;;5031635;28;20171;-65
2022/01/31 02:33:28;;;;;;;15.57;5.43;;;6.90;99.90;6.80;101073.00;;;;5031201;28;20189;-64
2022/01/31 02:36:02;;;;;;;0.43;0.43;;;7.00;99.90;7.00;101070.00;;;;5026176;28;20598;-65
2022/01/31 02:38:29;;;;;;;10.87;5.33;;;7.10;99.90;7.00;101067.00;;;;5013297;28;20568;-65
2022/01/31 02:41:00;;;;;;;7.97;3.80;;;7.20;99.90;7.30;101055.00;;;;5012529;28;20678;-64
2022/01/31 02:43:33;;;;;;;0.83;0.67;;;7.30;99.90;7.50;101067.00;;;;5029482;28;20187;-65
2022/01/31 02:46:22;;;;;;;3.80;1.50;;;7.40;99.90;7.80;101060.00;;;;5031826;28;20169;-65
2022/01/31 02:48:53;;;;;;;2.00;1.33;;;7.60;99.90;7.70;101057.00;;;;5031754;28;20521;-64
2022/01/31 02:51:31;;;;;;;0.57;0.57;;;7.60;99.90;7.80;101070.00;;;;5022546;28;20202;-64
2022/01/31 02:53:57;;;;;;;2.33;2.13;;;7.70;99.90;8.10;101055.00;;;;5012009;28;20533;-64
2022/01/31 02:56:27;;;;;;;0.67;0.67;;;7.80;99.90;7.90;101062.00;;;;5013169;28;20179;-64
2022/01/31 02:58:59;;;;;;;2.23;1.80;;;7.80;99.90;8.10;101036.00;;;;5013054;28;20202;-64
2022/01/31 03:01:31;;;;;;;1.40;1.30;;;7.90;99.90;7.80;100976.00;;;;5013071;28;20238;-64
2022/01/31 03:03:59;;;;;;;1.77;1.43;;;7.80;99.90;7.80;101026.00;;;;5012180;28;20215;-64
2022/01/31 03:06:33;;;;;;;0.70;0.70;;;7.80;99.90;7.80;101011.00;;;;5011409;28;20690;-64
2022/01/31 03:09:04;;;;;;;0.93;0.87;;;7.70;99.90;7.80;101019.00;;;;5012049;28;20168;-64
2022/01/31 03:11:36;;;;;;;0.60;0.60;;;7.70;99.90;7.90;100974.00;;;;5044894;28;20196;-65
2022/01/31 03:14:08;;;;;;;1.70;1.17;;;7.80;99.90;8.00;101004.00;;;;5011772;28;20573;-65
2022/01/31 03:16:41;;;;;;;0.87;0.87;;;7.80;99.90;8.10;101001.00;;;;5022296;28;20190;-65
2022/01/31 03:19:13;;;;;;;0.70;0.70;;;7.90;99.90;8.30;100993.00;;;;5034841;28;20187;-65
2022/01/31 03:21:48;;;;;;;0.63;0.63;;;7.90;99.90;8.20;100958.00;;;;5034364;28;20187;-64
2022/01/31 03:24:16;;;;;;;0.90;0.90;;;7.90;99.90;7.80;100985.00;;;;5036181;28;20183;-65
2022/01/31 03:26:47;;;;;;;0.50;0.50;;;7.80;99.90;7.90;100980.00;;;;5034311;28;20178;-64
2022/01/31 03:29:18;;;;;;;0.83;0.83;;;7.80;99.90;7.80;101005.00;;;;5036565;28;20190;-65
2022/01/31 03:31:50;;;;;;;2.80;2.13;;;7.70;99.90;8.00;100992.00;;;;5036138;28;20216;-65
2022/01/31 03:34:21;;;;;;;3.13;1.57;;;7.80;99.90;7.40;100939.00;;;;5015034;28;20204;-65
2022/01/31 03:36:51;;;;;;;0.67;0.67;;;7.70;99.90;7.70;100980.00;;;;5015724;28;20176;-65
2022/01/31 03:39:20;;;;;;;1.00;1.00;;;7.60;99.90;7.90;100982.00;;;;5014711;28;20688;-65
2022/01/31 03:41:51;;;;;;;1.23;1.20;;;7.70;99.90;7.70;100981.00;;;;5015351;28;20236;-65
2022/01/31 03:44:22;;;;;;;3.03;0.80;;;7.60;99.90;7.40;100982.00;;;;5016199;28;20167;-65
2022/01/31 03:46:50;;;;;;;5.63;1.27;;;7.60;99.90;7.50;100980.00;;;;5016319;28;20188;-65
2022/01/31 03:49:18;;;;;;;2.93;1.17;;;7.60;99.90;7.50;100972.00;;;;5016132;28;20172;-65
2022/01/31 03:51:47;;;;;;;0.40;0.40;;;7.50;99.90;7.60;100972.00;;;;5025148;28;20214;-65
2022/01/31 03:54:16;;;;;;;4.43;0.67;;;7.50;99.90;7.40;100962.00;;;;5032987;28;20657;-65
2022/01/31 03:56:44;;;;;;;2.00;1.87;;;7.60;99.90;7.80;100978.00;;;;5015957;28;20179;-65
2022/01/31 03:59:15;;;;;;;8.90;8.43;;;7.60;99.90;7.60;100939.00;;;;5016332;28;20183;-65
2022/01/31 04:01:41;;;;;;;0.50;0.50;;;7.50;99.90;7.40;100974.00;;;;5015821;28;20194;-62
2022/01/31 04:04:15;;;;;;;0.40;0.40;;;7.40;99.90;7.40;100982.00;;;;5016075;28;20541;-62
2022/01/31 04:06:48;;;;;;;3.67;1.47;;;7.40;99.90;7.10;100970.00;;;;5015654;28;20612;-64
2022/01/31 04:09:19;;;;;;;1.80;1.70;;;7.40;99.90;7.20;100954.00;;;;5015901;28;20183;-65
2022/01/31 04:11:45;;;;;;;0.60;0.60;;;7.30;99.90;7.50;100970.00;;;;5047538;28;20214;-64
2022/01/31 04:14:14;;;;;;;0.50;0.50;;;7.40;99.90;7.70;100965.00;;;;5048062;28;20172;-65
2022/01/31 04:16:45;;;;;;;1.33;1.10;;;7.50;99.90;7.50;100961.00;;;;5015738;28;20227;-64
2022/01/31 04:19:16;;;;;;;1.27;0.70;;;7.50;99.90;7.50;100958.00;;;;5027091;28;20175;-64
2022/01/31 04:21:47;;;;;;;0.50;0.50;;;7.40;99.90;7.40;100968.00;;;;5043108;28;20191;-64
2022/01/31 04:24:22;;;;;;;0.50;0.50;;;7.40;99.90;7.60;100959.00;;;;5052942;28;20227;-64
2022/01/31 04:26:58;;;;;;;0.67;0.67;;;7.50;99.90;7.60;100977.00;;;;5052707;28;20594;-65
2022/01/31 04:29:31;;;;;;;8.90;1.00;;;7.60;99.90;7.60;100936.00;;;;5054268;28;20177;-65
2022/01/31 04:32:03;;;;;;;1.73;1.60;;;7.60;99.90;7.50;100966.00;;;;5055101;28;20296;-65
2022/01/31 04:34:31;;;;;;;3.70;1.10;;;7.60;99.90;7.60;100965.00;;;;5053727;28;20191;-64
2022/01/31 04:37:03;;;;;;;0.93;0.87;;;7.60;99.90;7.30;100929.00;;;;5037457;28;20289;-65
2022/01/31 04:39:34;;;;;;;0.77;0.77;;;7.50;99.90;7.40;100951.00;;;;5055312;28;20570;-65
2022/01/31 04:42:10;;;;;;;0.57;0.57;;;7.50;99.90;7.40;100968.00;;;;5054695;28;20732;-65
2022/01/31 04:44:45;;;;;;;2.37;1.00;;;7.40;99.90;7.50;100974.00;;;;5055008;28;20689;-65
2022/01/31 04:47:16;;;;;;;1.27;1.20;;;7.50;99.90;7.70;100967.00;;;;5053495;28;20185;-65
2022/01/31 04:49:51;;;;;;;3.90;0.73;;;7.60;99.90;7.50;100948.00;;;;5053332;28;20192;-65
2022/01/31 04:52:25;;;;;;;2.33;1.33;;;7.50;99.90;7.40;100971.00;;;;5030121;28;20221;-65
2022/01/31 04:54:56;;;;;;;0.57;0.57;;;7.50;99.90;7.50;100988.00;;;;5013796;28;20179;-65
2022/01/31 04:57:27;;;;;;;0.40;0.40;;;7.40;99.90;7.50;100985.00;;;;5015056;28;20661;-64
2022/01/31 05:00:04;;;;;;;1.53;0.93;;;7.50;99.90;7.40;100981.00;;;;5014963;28;20180;-65
2022/01/31 05:02:34;;;;;;;0.50;0.50;;;7.60;99.90;7.40;100979.00;;;;5013786;28;20598;-65
2022/01/31 05:05:04;;;;;;;5.93;0.73;;;7.50;99.90;7.50;100970.00;;;;5014244;28;20183;-65
2022/01/31 05:07:36;;;;;;;1.73;0.77;;;7.60;99.90;7.50;100956.00;;;;5014691;28;20221;-66
2022/01/31 05:10:02;;;;;;;3.43;1.67;;;7.60;99.90;7.50;100979.00;;;;5013442;28;20193;-65
2022/01/31 05:12:28;;;;;;;2.00;1.10;;;7.60;99.90;7.40;100966.00;;;;5014624;28;20234;-66
2022/01/31 05:14:57;;;;;;;1.60;1.03;;;7.50;99.90;7.40;100967.00;;;;5013607;28;20644;-66
2022/01/31 05:17:28;;;;;;;1.30;1.13;;;7.50;99.90;7.70;100990.00;;;;5014871;28;20180;-65
2022/01/31 05:19:59;;;;;;;0.50;0.47;;;7.60;99.90;7.80;100985.00;;;;5014403;28;20221;-65
2022/01/31 05:22:29;;;;;;;7.20;0.70;;;7.60;99.90;7.90;100958.00;;;;5013625;28;20201;-65
2022/01/31 05:24:58;;;;;;;0.40;0.40;;;7.70;99.90;8.00;100972.00;;;;5013774;28;20175;-65
2022/01/31 05:27:26;;;;;;;1.40;1.13;;;7.70;99.90;7.90;100982.00;;;;5013360;28;20203;-66
2022/01/31 05:29:58;;;;;;;1.53;1.10;;;7.80;99.90;7.70;100979.00;;;;5014570;28;20182;-66
2022/01/31 05:32:29;;;;;;;0.83;0.60;;;7.70;99.90;7.60;100971.00;;;;5014221;28;20218;-65
2022/01/31 05:35:03;;;;;;;0.40;0.40;;;7.60;99.90;7.70;100978.00;;;;5017495;28;20185;-65
2022/01/31 05:37:37;;;;;;;0.40;0.40;;;7.60;99.90;7.70;100974.00;;;;5033922;28;20189;-66
2022/01/31 05:40:09;;;;;;;0.67;0.67;;;7.60;99.90;7.30;100928.00;;;;5034164;28;20171;-66
2022/01/31 05:42:37;;;;;;;4.60;1.23;;;7.50;99.90;7.70;100966.00;;;;5032111;28;20654;-65
2022/01/31 05:45:06;;;;;;;0.63;0.63;;;7.50;99.90;7.60;100953.00;;;;5032774;28;20237;-66
2022/01/31 05:47:36;;;;;;;8.43;1.90;;;7.50;99.90;7.50;100970.00;;;;5032421;28;20175;-66
2022/01/31 05:50:06;;;;;;;1.40;0.57;;;7.40;99.90;7.70;100965.00;;;;5033534;28;20186;-66
2022/01/31 05:52:35;;;;;;;1.70;0.90;;;7.50;99.90;7.60;100954.00;;;;5032520;28;20240;-67
2022/01/31 05:55:01;;;;;;;3.77;0.60;;;7.60;99.90;7.50;100957.00;;;;5033269;28;20587;-66
2022/01/31 05:57:33;;;;;;;0.67;0.50;;;7.60;99.90;7.80;100971.00;;;;5032762;28;20177;-65
2022/01/31 06:00:06;;;;;;;0.50;0.50;;;7.60;99.90;7.80;100962.00;;;;5033315;28;20175;-65
2022/01/31 06:02:39;;;;;;;4.33;0.57;;;7.70;99.90;7.90;100979.00;;;;5012180;28;20195;-66
2022/01/31 06:05:14;;;;;;;0.37;0.37;;;7.70;99.90;7.90;100970.00;;;;5014025;28;20173;-66
2022/01/31 06:07:49;;;;;;;0.90;0.77;;;7.80;99.90;7.80;100917.00;;;;5033191;28;20275;-65
2022/01/31 06:10:18;;;;;;;1.33;1.20;;;7.80;99.90;7.60;100953.00;;;;5033338;28;20194;-65
2022/01/31 06:12:45;;;;;;;1.60;0.90;;;7.70;99.90;7.60;100968.00;;;;5033131;28;20241;-66
2022/01/31 06:15:13;;;;;;;1.07;0.80;;;7.70;99.90;7.50;100968.00;;;;5033314;28;20178;-66
2022/01/31 06:17:41;;;;;;;2.53;2.20;;;7.60;99.90;7.50;100988.00;;;;5032996;28;20189;-65
2022/01/31 06:20:10;;;;;;;2.00;1.33;;;7.60;99.90;7.70;100985.00;;;;5033218;28;20187;-66
2022/01/31 06:22:50;;;;;;;2.20;1.40;;;7.70;99.90;7.80;100981.00;;;;5022199;28;20204;-66
2022/01/31 06:25:22;;;;;;;1.67;0.50;;;7.70;99.90;7.60;100977.00;;;;5016741;28;20185;-66
2022/01/31 06:27:53;;;;;;;1.40;0.50;;;7.70;99.90;7.80;100986.00;;;;5012253;28;20557;-66
2022/01/31 06:30:25;;;;;;;1.03;0.90;;;7.70;99.90;7.90;100983.00;;;;5012490;28;20200;-66
2022/01/31 06:32:57;;;;;;;0.33;0.33;;;7.70;99.90;8.00;100947.00;;;;5012783;28;20222;-66
2022/01/31 06:35:25;;;;;;;0.40;0.40;;;7.80;99.90;7.90;100996.00;;;;5013259;28;20219;-66
2022/01/31 06:37:56;;;;;;;0.40;0.40;;;7.80;99.90;8.00;100992.00;;;;5036380;28;20244;-66
2022/01/31 06:40:29;;;;;;;5.17;1.13;;;7.80;99.90;7.80;101007.00;;;;5023617;28;20187;-66
2022/01/31 06:43:01;;;;;;;2.67;0.80;;;7.80;99.90;7.70;101013.00;;;;5020220;28;20576;-66
2022/01/31 06:45:32;;;;;;;1.17;0.90;;;7.70;99.90;7.90;100999.00;;;;5029101;28;20179;-66
2022/01/31 06:48:03;;;;;;;0.77;0.53;;;7.70;99.90;7.90;101007.00;;;;5032845;28;20183;-66
2022/01/31 06:50:29;;;;;;;0.60;0.60;;;7.80;99.90;7.60;100988.00;;;;5032962;28;20666;-65
2022/01/31 06:52:57;;;;;;;0.50;0.50;;;7.70;99.90;7.80;101008.00;;;;5032107;28;20230;-66
2022/01/31 06:55:33;;;;;;;1.57;0.60;;;7.70;99.90;7.80;101010.00;;;;5035885;28;20258;-65
2022/01/31 06:58:02;;;;;;;0.50;0.50;;;7.80;99.90;8.20;101038.00;;;;5037084;28;20273;-66
2022/01/31 07:00:28;;;;;;;0.50;0.50;;;7.90;99.90;8.20;101027.00;;;;5018053;28;20538;-65
2022/01/31 07:02:55;;;;;;;0.77;0.77;;;7.90;99.90;7.70;101029.00;;;;5015905;28;20842;-66
2022/01/31 07:05:24;;;;;;;3.07;1.07;;;7.90;99.90;8.00;101027.00;;;;5017645;28;20195;-65
2022/01/31 07:07:50;;;;;;;1.77;1.37;;;7.90;99.90;8.10;101023.00;;;;5034802;28;20229;-66
2022/01/31 07:10:21;;;;;;;2.03;0.73;;;7.90;99.90;8.00;101025.00;;;;5036607;28;20565;-66
2022/01/31 07:12:51;;;;;;;2.57;0.90;;;7.90;99.90;7.90;101029.00;;;;5036743;28;20261;-66
2022/01/31 07:15:18;;;;;;;0.30;0.30;;;7.90;99.90;8.00;101037.00;;;;5020715;28;20184;-66
2022/01/31 07:17:47;;;;;;;18.17;1.80;;;7.90;99.90;7.90;101039.00;;;;5016486;28;20210;-66
2022/01/31 07:20:24;;;;;;;1.23;0.43;;;7.90;99.90;7.90;101048.00;;;;5016683;28;20222;-65
2022/01/31 07:23:01;;;;;;;0.83;0.83;;;7.90;99.90;8.20;101063.00;;;;5015766;28;20187;-65
2022/01/31 07:25:38;;;;;;;0.33;0.33;;;7.90;99.90;8.00;101056.00;;;;5016793;28;20191;-65
2022/01/31 07:28:16;;;;;;;0.53;0.53;;;7.90;99.90;8.00;101057.00;;;;5016675;28;20175;-66
2022/01/31 07:30:49;;;;;;;0.40;0.40;;;7.90;99.90;8.00;101060.00;;;;5015210;28;20207;-65
2022/01/31 07:33:21;;;;;;;0.47;0.47;;;7.80;99.90;8.30;101029.00;;;;5032062;28;20268;-65
2022/01/31 07:35:53;;;;;;;0.73;0.73;;;7.90;99.90;8.00;101012.00;;;;4998953;28;20296;-65
2022/01/31 07:38:22;;;;;;;2.47;1.03;;;7.90;99.90;8.10;101070.00;;;;5016508;28;20278;-65
2022/01/31 07:40:57;;;;;;;1.10;1.07;;;7.90;99.90;7.90;101067.00;;;;5015193;28;20271;-65
2022/01/31 07:43:23;;;;;;;0.60;0.60;;;7.90;99.90;8.10;101087.00;;;;5016256;28;20183;-65
2022/01/31 07:45:55;;;;;;;0.30;0.30;;;7.90;99.90;8.00;101058.00;;;;5028190;28;20197;-65
2022/01/31 07:48:30;;;;;;;0.40;0.40;;;7.90;99.90;7.80;101084.00;;;;5015940;28;20176;-65
2022/01/31 07:50:56;;;;;;;0.87;0.87;;;7.80;99.90;7.90;101084.00;;;;5046157;28;20183;-65
2022/01/31 07:53:27;;;;;;;0.87;0.47;;;7.80;99.90;7.90;101079.00;;;;5016384;28;20211;-65
2022/01/31 07:56:04;;;;;;;2.00;1.77;;;7.80;99.90;7.60;101083.00;;;;5015459;28;20219;-65
2022/01/31 07:58:36;;;;;;;2.20;1.17;;;7.80;99.90;8.00;101061.00;;;;5015329;28;20263;-65
2022/01/31 08:01:05;;;;;;;3.10;0.90;;;7.80;99.90;7.90;101071.00;;;;5013998;28;20760;-65
2022/01/31 08:03:39;;;;;;;0.60;0.60;;;7.80;99.90;8.00;101055.00;;;;5014705;28;20213;-65
2022/01/31 08:06:08;;;;;;;0.30;0.30;;;7.90;99.90;8.10;101114.00;;;;5016810;28;20709;-65
2022/01/31 08:08:40;;;;;;;1.17;1.07;;;7.90;99.90;8.00;101110.00;;;;5014188;28;20180;-65
2022/01/31 08:11:11;;;;;;;1.20;0.90;;;7.90;99.90;8.10;101095.00;;;;5014755;28;20212;-65
2022/01/31 08:13:43;;;;;;;0.40;0.40;;;7.90;99.90;8.10;101094.00;;;;5014492;28;20709;-65
2022/01/31 08:16:13;;;;;;;10.37;1.33;;;7.90;99.90;8.20;101129.00;;;;5015151;28;20188;-65
2022/01/31 08:18:48;;;;;;;0.63;0.63;;;7.90;99.90;8.20;101123.00;;;;5015663;28;20212;-65
2022/01/31 08:21:26;;;;;;;0.30;0.30;;;7.90;99.90;8.00;101122.00;;;;5015762;28;20179;-65
2022/01/31 08:23:57;;;;;;;1.07;1.03;;;7.90;99.90;8.00;101132.00;;;;5015669;28;20171;-65
2022/01/31 08:26:26;;;;;;;0.53;0.53;;;7.90;99.90;7.80;101144.00;;;;5014019;28;20194;-66
2022/01/31 08:29:04;;;;;;;0.30;0.30;;;7.90;99.90;8.10;101136.00;;;;5014442;28;20226;-65
2022/01/31 08:31:37;;;;;;;2.47;0.87;;;7.90;99.90;7.90;101141.00;;;;5027057;28;20305;-64
2022/01/31 08:36:46;;;;;;;6.40;0.70;;;7.80;99.90;8.20;101149.00;;;;5034721;28;20191;-64
2022/01/31 08:39:23;;;;;;;2.00;0.77;;;7.90;99.90;8.10;101155.00;;;;5034651;28;20183;-65
2022/01/31 08:41:54;;;;;;;0.40;0.40;;;7.90;99.90;7.90;101157.00;;;;5034569;28;20628;-65
2022/01/31 08:44:25;;;;;;;0.47;0.47;;;7.90;99.90;8.00;101154.00;;;;5028253;28;20662;-65
2022/01/31 08:46:55;;;;;;;0.57;0.57;;;7.90;99.90;8.20;101123.00;;;;5032802;28;20171;-65
2022/01/31 08:49:20;;;;;;;9.60;1.43;;;7.90;99.90;8.30;101198.00;;;;5032043;28;20269;-65
2022/01/31 08:51:51;;;;;;;0.93;0.83;;;8.00;99.90;8.10;101145.00;;;;5034125;28;20750;-66
2022/01/31 08:54:22;;;;;;;1.63;0.97;;;8.00;99.90;8.20;101188.00;;;;5033964;28;20274;-66
2022/01/31 08:56:53;;;;;;;0.63;0.63;;;8.00;99.90;8.30;101176.00;;;;5029084;28;20662;-66
2022/01/31 08:59:26;;;;;;;3.80;0.70;;;8.00;99.90;8.40;101208.00;;;;5034269;28;20603;-66
2022/01/31 09:02:05;;;;;;;4.00;2.23;;;8.10;99.90;8.10;101166.00;;;;5031212;28;20184;-66
2022/01/31 09:04:48;;;;;;;0.73;0.73;;;8.00;99.90;8.40;101215.00;;;;5034535;28;20187;-66
2022/01/31 09:07:24;;;;;;;0.47;0.47;;;8.00;99.90;8.20;101194.00;;;;5017241;28;20179;-66
2022/01/31 09:09:57;;;;;;;2.10;0.97;;;8.00;99.90;8.30;101218.00;;;;5013499;28;20191;-69
2022/01/31 09:12:31;;;;;;;0.93;0.67;;;8.00;99.90;8.40;101175.00;;;;5014439;28;20305;-68
2022/01/31 09:14:58;;;;;;;1.67;0.87;;;8.10;99.90;8.40;101164.00;;;;5013576;28;20181;-69
2022/01/31 09:17:29;;;;;;;2.67;1.53;;;8.10;99.90;8.10;101187.00;;;;5011596;28;20584;-65
2022/01/31 09:19:56;;;;;;;1.87;0.40;;;8.00;99.90;8.20;101232.00;;;;5014409;28;20572;-67
2022/01/31 09:22:22;;;;;;;1.03;0.70;;;7.90;99.90;8.00;101232.00;;;;5022349;28;20268;-67
2022/01/31 09:24:50;;;;;;;1.80;1.57;;;7.90;99.90;8.30;101174.00;;;;5033898;28;20680;-67
2022/01/31 09:27:16;;;;;;;0.30;0.30;;;8.00;99.90;8.00;101242.00;;;;5033976;28;20578;-69
2022/01/31 09:29:45;;;;;;;1.30;0.43;;;8.00;99.90;8.20;101260.00;;;;5029392;28;20190;-69
2022/01/31 09:32:12;;;;;;;1.53;0.73;;;8.00;99.90;8.70;101243.00;;;;5027457;28;20207;-70
2022/01/31 09:34:40;;;;;;;6.13;1.80;;;8.20;99.90;8.10;101267.00;;;;5032935;28;20189;-70
2022/01/31 09:37:07;;;;;;;3.70;1.23;;;8.00;99.90;7.30;101205.00;;;;5033813;28;20620;-68
2022/01/31 09:39:35;;;;;;;0.40;0.40;;;7.60;99.90;6.70;101221.00;;;;5032748;28;20176;-67
2022/01/31 09:42:13;;;;;;;5.93;1.20;;;7.00;99.90;6.10;101200.00;;;;5031638;28;20658;-67
2022/01/31 09:45:06;;;;;;;2.83;0.70;;;6.60;99.90;6.40;101216.00;;;;5029099;28;20265;-67
2022/01/31 09:50:22;;;;;;;0.30;0.30;;;6.70;99.90;6.90;101217.00;;;;5027410;28;20223;-67
2022/01/31 09:52:50;;;;;;;1.07;1.07;;;6.80;99.90;6.90;101228.00;;;;5029526;28;20205;-67
2022/01/31 09:55:25;;;;;;;0.47;0.40;;;6.90;99.90;7.30;101240.00;;;;5033063;28;20192;-67
2022/01/31 09:57:51;;;;;;;0.43;0.43;;;7.20;99.90;7.60;101238.00;;;;5029774;28;20212;-67
2022/01/31 10:00:31;;;;;;;0.40;0.40;;;7.40;99.90;7.70;101237.00;;;;5031245;28;20212;-66
2022/01/31 10:03:10;;;;;;;0.30;0.30;;;7.60;99.90;7.70;101245.00;;;;5028214;28;20281;-67
2022/01/31 10:05:45;;;;;;;2.40;1.43;;;7.60;99.90;7.80;101250.00;;;;5027820;28;20186;-67
2022/01/31 10:08:16;;;;;;;1.13;0.70;;;7.70;99.90;7.60;101189.00;;;;5028027;28;20186;-67
2022/01/31 10:10:48;;;;;;;1.50;0.87;;;7.60;99.90;7.90;101214.00;;;;5032372;28;20187;-67
2022/01/31 10:16:29;;;;;;;0.40;0.40;;;8.00;99.90;8.40;101284.00;;;;5027626;28;20249;-68
2022/01/31 10:19:10;;;;;;;1.33;1.23;;;8.10;99.90;7.70;101258.00;;;;5013019;28;20561;-68
2022/01/31 10:33:24;;;;;;;0.90;0.90;;;7.10;99.90;6.40;101291.00;;;;5069133;28;20612;-67
2022/01/31 10:35:53;;;;;;;2.10;1.03;;;7.00;99.90;6.60;101285.00;;;;5049877;28;20189;-67
2022/01/31 10:38:36;;;;;;;5.40;1.27;;;6.90;99.90;6.80;101295.00;;;;5048710;28;20270;-67
2022/01/31 10:44:55;;;;;;;2.00;1.83;;;6.90;99.90;6.90;101294.00;;;;5050578;28;20177;-68
2022/01/31 10:54:06;;;;;;;0.70;0.70;;;7.40;99.90;7.70;101341.00;;;;5042728;28;20234;-68
2022/01/31 10:56:57;;;;;;;0.50;0.50;;;7.60;99.90;7.70;101362.00;;;;5049681;28;20880;-66
2022/01/31 10:59:50;;;;;;;1.93;1.30;;;7.70;99.90;8.00;101356.00;;;;5047883;28;20261;-72
2022/01/31 11:02:45;;;;;;;1.33;1.13;;;7.90;99.90;7.90;101372.00;;;;5048776;28;20210;-68
2022/01/31 11:05:23;;;;;;;4.10;0.97;;;7.90;99.90;8.00;101357.00;;;;5045413;28;20238;-65
2022/01/31 11:07:49;;;;;;;3.97;3.80;;;7.90;99.90;8.00;101319.00;;;;5043019;28;20203;-67
2022/01/31 11:10:26;;;;;;;0.73;0.60;;;8.00;99.90;8.20;101393.00;;;;5028843;28;20203;-66
2022/01/31 11:12:53;;;;;;;1.23;0.73;;;8.00;99.90;8.30;101386.00;;;;5027482;28;20204;-66
2022/01/31 11:15:19;;;;;;;1.93;0.83;;;8.10;99.90;8.20;101383.00;;;;5049908;28;20286;-65
2022/01/31 11:17:49;;;;;;;3.80;1.40;;;8.10;99.90;8.20;101393.00;;;;5049515;28;20203;-71
2022/01/31 11:20:16;;;;;;;1.90;0.87;;;8.10;99.90;8.30;101385.00;;;;5030343;28;20197;-68
2022/01/31 11:22:43;;;;;;;0.70;0.63;;;8.10;99.90;8.00;101358.00;;;;5047806;28;20590;-66
2022/01/31 11:25:20;;;;;;;4.00;1.20;;;8.00;99.90;7.80;101402.00;;;;5047628;28;20179;-74
2022/01/31 11:27:46;;;;;;;0.83;0.60;;;7.90;99.90;7.60;101391.00;;;;5048127;28;20187;-72
2022/01/31 11:30:19;;;;;;;1.27;1.17;;;7.80;99.90;7.50;101311.00;;;;5046993;28;20197;-68
2022/01/31 11:32:52;;;;;;;0.73;0.70;;;7.70;99.90;8.00;101388.00;;;;5030762;28;20224;-67
2022/01/31 11:35:19;;;;;;;3.13;0.83;;;7.70;99.90;7.90;101402.00;;;;5030851;28;20189;-65
2022/01/31 11:37:45;;;;;;;0.97;0.97;;;7.80;99.90;7.50;101415.00;;;;5045947;28;20179;-73
2022/01/31 11:40:14;;;;;;;14.57;5.27;;;7.70;99.90;7.60;101403.00;;;;5011374;28;20231;-66
2022/01/31 11:42:46;;;;;;;1.37;0.77;;;7.60;99.90;7.70;101392.00;;;;5026329;28;20555;-65
2022/01/31 11:45:23;;;;;;;1.60;0.50;;;7.60;99.90;7.70;101331.00;;;;4998661;28;20191;-71
2022/01/31 11:47:50;;;;;;;1.00;0.83;;;7.70;99.90;7.70;101401.00;;;;5017514;28;20190;-65
2022/01/31 11:50:20;;;;;;;0.50;0.50;;;7.70;99.90;7.70;101389.00;;;;5034260;28;20177;-68
2022/01/31 11:52:56;;;;;;;0.93;0.83;;;7.70;99.90;7.60;101390.00;;;;5033440;28;20228;-66